Hoopa Valley Indian Reservat, California
Current Conditions -  °F | °C
As of 12:15 AM on Monday 22 Dec 2014 (Local Time) from KACV Reporting Station
Moderate Fog Moderate Fog  
Wind Chill: 57°   Ceiling: 300
Heat Index: 57°   Visibility: 0.5mi
Dew Point: 57°   Wind: 0mph
Humidity: 100%   Direction: NA
Pressure: 30.34"   Gusts: NA
Location:  41.4038°N, 123.781°W
Report Text: KACV 220815Z AUTO 00000KT 1/2SM R32/1800V2400FT FG VV003 14/14 A3034 RMK AO2 T01390139
Loading
Personal Weather Stations






























Interactive Weather Map New forecast layout! Learn more

10-Day Weather Forecast

Advertisements
Track Severe Weather on mobile